Time;durP1;ratioP1;P1;durP2;ratioP2;P2;SDS_P1;SDS_P2;PMS_P1;PMS_P2;Temp;Humidity;BMP_temperature;BMP_pressure;BME280_temperature;BME280_humidity;BME280_pressure;Samples;Min_cycle;Max_cycle;Signal;HPM_P1;HPM_P2
2022/11/28 00:00:11;;;;;;;0.67;0.67;;;;;;;7.32;100.00;100214.16;5140680;27;20265;-66
2022/11/28 00:02:37;;;;;;;0.83;0.83;;;;;;;7.33;100.00;100203.06;5138496;27;20194;-66
2022/11/28 00:05:05;;;;;;;0.60;0.60;;;;;;;7.48;100.00;100208.97;5096476;28;20628;-66
2022/11/28 00:07:31;;;;;;;0.70;0.70;;;;;;;7.52;100.00;100205.56;5106230;28;20237;-66
2022/11/28 00:09:58;;;;;;;1.70;1.03;;;;;;;7.50;100.00;100204.69;5104948;28;20317;-66
2022/11/28 00:12:26;;;;;;;0.50;0.50;;;;;;;7.53;100.00;100207.25;5107871;28;20206;-66
2022/11/28 00:14:54;;;;;;;0.53;0.53;;;;;;;7.60;100.00;100208.91;5105470;28;20197;-67
2022/11/28 00:17:21;;;;;;;0.60;0.60;;;;;;;7.66;100.00;100203.75;5110335;28;20249;-66
2022/11/28 00:19:48;;;;;;;0.57;0.57;;;;;;;7.75;100.00;100208.84;5096646;28;20218;-67
2022/11/28 00:22:15;;;;;;;0.80;0.80;;;;;;;7.80;100.00;100202.84;5101362;28;20196;-67
2022/11/28 00:24:41;;;;;;;0.60;0.60;;;;;;;7.87;100.00;100204.50;5099569;28;20264;-67
2022/11/28 00:27:08;;;;;;;0.70;0.70;;;;;;;7.89;100.00;100196.81;5093531;28;20682;-66
2022/11/28 00:29:35;;;;;;;0.60;0.60;;;;;;;7.89;100.00;100202.75;5110687;28;20570;-66
2022/11/28 00:32:03;;;;;;;0.60;0.60;;;;;;;7.90;100.00;100203.63;5092861;28;20206;-66
2022/11/28 00:34:33;;;;;;;0.80;0.80;;;;;;;7.85;99.78;100187.50;5105874;28;20228;-66
2022/11/28 00:37:00;;;;;;;0.60;0.60;;;;;;;7.92;99.87;100200.19;5100007;27;20200;-66
2022/11/28 00:39:26;;;;;;;0.53;0.53;;;;;;;7.94;99.91;100205.31;5093015;28;20265;-66
2022/11/28 00:41:53;;;;;;;0.80;0.80;;;;;;;7.98;99.79;100199.28;5090115;28;20225;-66
2022/11/28 00:44:20;;;;;;;0.50;0.50;;;;;;;7.86;99.65;100176.41;5092676;28;20203;-66
2022/11/28 00:46:47;;;;;;;0.77;0.77;;;;;;;7.91;100.00;100195.13;5090546;28;20223;-66
2022/11/28 00:49:15;;;;;;;0.60;0.60;;;;;;;7.88;100.00;100195.13;5109242;28;20573;-66
2022/11/28 00:51:42;;;;;;;0.60;0.60;;;;;;;7.87;100.00;100185.78;5113676;28;20662;-66
2022/11/28 00:54:09;;;;;;;0.60;0.60;;;;;;;7.83;100.00;100181.53;5093972;27;20213;-66
2022/11/28 00:56:39;;;;;;;0.87;0.87;;;;;;;7.78;100.00;100183.28;5095782;28;20252;-66
2022/11/28 00:59:08;;;;;;;0.60;0.60;;;;;;;7.67;100.00;100177.38;5094208;28;20663;-67
2022/11/28 01:01:37;;;;;;;0.50;0.50;;;;;;;7.62;100.00;100186.78;5106072;28;20229;-67
2022/11/28 01:04:07;;;;;;;0.60;0.60;;;;;;;7.58;100.00;100177.44;5128285;27;20270;-67
2022/11/28 01:06:38;;;;;;;0.70;0.70;;;;;;;7.62;100.00;100176.59;5133754;27;20201;-66
2022/11/28 01:09:07;;;;;;;0.90;0.90;;;;;;;7.48;100.00;100165.59;5145406;27;20254;-67
2022/11/28 01:11:37;;;;;;;0.63;0.63;;;;;;;7.49;100.00;100164.75;5141750;27;20190;-67
2022/11/28 01:14:04;;;;;;;0.53;0.53;;;;;;;7.58;100.00;100172.34;5151373;27;20652;-66
2022/11/28 01:16:31;;;;;;;0.70;0.70;;;;;;;7.61;100.00;100169.78;5140345;27;20219;-66
2022/11/28 01:18:58;;;;;;;0.63;0.63;;;;;;;7.62;100.00;100174.88;5140860;27;20193;-66
2022/11/28 01:21:25;;;;;;;0.80;0.80;;;;;;;7.58;100.00;100164.69;5153925;27;20201;-67
2022/11/28 01:23:53;;;;;;;0.60;0.60;;;;;;;7.53;100.00;100172.34;5154541;27;20197;-67
2022/11/28 01:26:23;;;;;;;0.53;0.53;;;;;;;7.50;100.00;100167.28;5143717;27;20205;-66
2022/11/28 01:28:50;;;;;;;0.60;0.60;;;;;;;7.44;100.00;100161.34;5139568;27;20217;-67
2022/11/28 01:31:19;;;;;;;0.50;0.50;;;;;;;7.43;100.00;100173.28;5136967;27;20555;-67
2022/11/28 01:33:46;;;;;;;0.70;0.70;;;;;;;7.38;100.00;100163.09;5143516;27;20228;-66
2022/11/28 01:36:14;;;;;;;0.60;0.60;;;;;;;7.33;100.00;100167.34;5137742;27;20547;-66
2022/11/28 01:38:41;;;;;;;0.53;0.53;;;;;;;7.33;100.00;100161.44;5145430;27;20185;-66
2022/11/28 01:41:10;;;;;;;0.70;0.70;;;;;;;7.32;100.00;100168.22;5134920;27;20198;-66
2022/11/28 01:43:56;;;;;;;0.60;0.60;;;;;;;7.30;100.00;100157.16;5136166;27;20835;-67
2022/11/28 01:46:23;;;;;;;0.50;0.50;;;;;;;7.26;100.00;100157.22;5132274;27;20577;-66
2022/11/28 01:48:51;;;;;;;0.70;0.70;;;;;;;7.27;100.00;100164.84;5145937;27;20225;-66
2022/11/28 01:51:18;;;;;;;0.80;0.80;;;;;;;7.20;100.00;100158.09;5141423;27;20193;-67
2022/11/28 01:53:47;;;;;;;0.73;0.73;;;;;;;7.14;100.00;100157.28;5144725;27;20246;-67
2022/11/28 01:56:19;;;;;;;0.73;0.73;;;;;;;7.15;100.00;100158.94;5150657;27;20193;-66
2022/11/28 01:58:50;;;;;;;0.60;0.60;;;;;;;7.26;100.00;100158.06;5138707;27;20186;-66
2022/11/28 02:01:18;;;;;;;0.60;0.60;;;;;;;7.29;100.00;100158.06;5139679;27;20190;-66
2022/11/28 02:03:47;;;;;;;0.60;0.60;;;;;;;7.32;100.00;100147.84;5149572;27;20217;-67
2022/11/28 02:06:18;;;;;;;0.60;0.60;;;;;;;7.34;100.00;100146.09;5133253;27;20251;-66
2022/11/28 02:08:44;;;;;;;0.60;0.60;;;;;;;7.20;100.00;100142.81;5137608;27;20229;-67
2022/11/28 02:11:38;;;;;;;0.60;0.60;;;;;;;7.13;100.00;100146.22;5136629;27;20589;-66
2022/11/28 02:14:15;;;;;;;0.60;0.60;;;;;;;7.08;100.00;100132.63;5141513;27;20220;-66
2022/11/28 02:16:56;;;;;;;0.60;0.60;;;;;;;7.15;100.00;100138.56;5152708;27;20249;-67
2022/11/28 02:19:49;;;;;;;0.80;0.80;;;;;;;7.09;100.00;100139.44;5149835;27;20197;-66
2022/11/28 02:22:20;;;;;;;0.50;0.50;;;;;;;7.06;100.00;100134.34;5137194;27;20194;-66
2022/11/28 02:25:05;;;;;;;0.70;0.70;;;;;;;7.03;100.00;100129.28;5137421;27;20194;-66
2022/11/28 02:28:05;;;;;;;0.80;0.80;;;;;;;7.05;100.00;100126.69;5140075;27;20213;-66
2022/11/28 02:30:41;;;;;;;0.70;0.70;;;;;;;7.09;100.00;100128.38;5132015;27;20209;-66
2022/11/28 02:33:14;;;;;;;0.60;0.60;;;;;;;7.13;100.00;100136.03;5143257;27;20200;-66
2022/11/28 02:35:53;;;;;;;0.50;0.50;;;;;;;7.21;100.00;100130.88;5140505;27;20296;-66
2022/11/28 02:38:26;;;;;;;0.50;0.50;;;;;;;7.23;100.00;100130.03;5139099;27;20193;-66
2022/11/28 02:41:02;;;;;;;0.57;0.57;;;;;;;7.28;100.00;100135.09;5130946;27;20201;-66
2022/11/28 02:43:35;;;;;;;0.50;0.50;;;;;;;7.24;100.00;100133.41;5138276;27;20216;-66
2022/11/28 02:46:07;;;;;;;0.60;0.60;;;;;;;7.27;100.00;100139.34;5133493;27;20216;-66
2022/11/28 02:48:41;;;;;;;1.33;1.23;;;;;;;7.23;100.00;100142.78;5133743;27;20293;-67
2022/11/28 02:51:16;;;;;;;0.67;0.67;;;;;;;7.17;100.00;100122.38;5146584;27;20218;-66
2022/11/28 02:53:45;;;;;;;0.60;0.60;;;;;;;7.21;100.00;100136.81;5141935;27;20193;-66
2022/11/28 02:56:13;;;;;;;0.70;0.70;;;;;;;7.25;100.00;100141.06;5135566;27;20201;-66
2022/11/28 02:58:40;;;;;;;0.60;0.60;;;;;;;7.30;100.00;100144.41;5136839;27;20194;-66
2022/11/28 03:01:17;;;;;;;1.30;1.30;;;;;;;7.33;100.00;100128.28;5145108;27;20193;-66
2022/11/28 03:03:55;;;;;;;1.20;1.20;;;;;;;7.39;100.00;100141.00;5137042;27;20565;-66
2022/11/28 03:06:33;;;;;;;0.60;0.60;;;;;;;7.43;100.00;100135.03;5137710;27;20253;-66
2022/11/28 03:09:20;;;;;;;0.70;0.70;;;;;;;7.48;100.00;100140.09;5132047;27;20302;-66
2022/11/28 03:11:55;;;;;;;0.50;0.50;;;;;;;7.35;100.00;100117.22;5134312;27;20664;-67
2022/11/28 03:14:29;;;;;;;0.70;0.70;;;;;;;7.52;100.00;100134.13;5149619;27;20724;-66
2022/11/28 03:17:07;;;;;;;0.60;0.60;;;;;;;7.54;100.00;100137.50;5131691;27;20197;-66
2022/11/28 03:19:39;;;;;;;0.57;0.57;;;;;;;7.52;100.00;100139.22;5132044;27;20197;-66
2022/11/28 03:22:14;;;;;;;0.50;0.50;;;;;;;7.57;100.00;100135.78;5146784;27;20194;-66
2022/11/28 03:24:46;;;;;;;0.70;0.70;;;;;;;7.55;100.00;100129.84;5139081;27;20726;-66
2022/11/28 03:27:18;;;;;;;0.40;0.40;;;;;;;7.50;100.00;100121.34;5140611;27;20201;-66
2022/11/28 03:29:48;;;;;;;0.70;0.70;;;;;;;7.51;100.00;100127.31;5134210;27;20205;-67
2022/11/28 03:32:20;;;;;;;0.53;0.53;;;;;;;7.56;100.00;100131.50;5137925;27;20194;-66
2022/11/28 03:34:52;;;;;;;0.50;0.50;;;;;;;7.59;100.00;100133.22;5131622;27;20683;-67
2022/11/28 03:37:23;;;;;;;0.60;0.60;;;;;;;7.59;100.00;100138.31;5130405;27;20198;-66
2022/11/28 03:39:57;;;;;;;0.70;0.70;;;;;;;7.61;100.00;100144.25;5140188;27;20600;-66
2022/11/28 03:42:27;;;;;;;0.67;0.67;;;;;;;7.60;100.00;100132.34;5145623;27;20196;-67
2022/11/28 03:44:58;;;;;;;0.70;0.70;;;;;;;7.63;100.00;100142.53;5143006;27;20198;-67
2022/11/28 03:47:29;;;;;;;0.67;0.67;;;;;;;7.49;100.00;100118.81;5147702;27;20201;-67
2022/11/28 03:50:04;;;;;;;0.80;0.80;;;;;;;7.57;100.00;100128.13;5142301;27;20190;-66
2022/11/28 03:52:36;;;;;;;0.60;0.60;;;;;;;7.64;100.00;100137.44;5145982;27;20609;-67
2022/11/28 03:55:07;;;;;;;0.60;0.60;;;;;;;7.65;100.00;100138.28;5135022;27;20194;-67
2022/11/28 03:57:41;;;;;;;0.57;0.57;;;;;;;7.66;100.00;100137.41;5132172;27;20190;-66
2022/11/28 04:00:12;;;;;;;0.50;0.50;;;;;;;7.65;100.00;100138.28;5144041;27;20189;-66
2022/11/28 04:02:46;;;;;;;0.40;0.40;;;;;;;7.64;100.00;100144.22;5145372;27;20198;-66
2022/11/28 04:05:22;;;;;;;0.50;0.50;;;;;;;7.61;100.00;100134.06;5136517;27;20204;-66
2022/11/28 04:07:54;;;;;;;0.50;0.50;;;;;;;7.50;100.00;100121.34;5132715;27;20597;-66
2022/11/28 04:10:27;;;;;;;0.60;0.60;;;;;;;7.60;100.00;100137.44;5136592;27;20208;-66
2022/11/28 04:13:00;;;;;;;0.50;0.50;;;;;;;7.69;100.00;100145.06;5150386;27;20205;-67
2022/11/28 04:15:33;;;;;;;0.70;0.70;;;;;;;7.69;100.00;100142.53;5145366;27;20253;-66
2022/11/28 04:18:07;;;;;;;0.63;0.63;;;;;;;7.64;100.00;100145.09;5139956;27;20193;-67
2022/11/28 04:20:38;;;;;;;0.50;0.50;;;;;;;7.67;100.00;100155.28;5151640;27;20556;-67
2022/11/28 04:23:08;;;;;;;0.60;0.60;;;;;;;7.68;100.00;100162.09;5145698;27;20202;-67
2022/11/28 04:25:39;;;;;;;0.70;0.70;;;;;;;7.66;100.00;100157.81;5134775;27;20198;-66
2022/11/28 04:28:10;;;;;;;0.50;0.50;;;;;;;7.57;100.00;100145.13;5142328;27;20324;-67
2022/11/28 04:30:38;;;;;;;0.70;0.70;;;;;;;7.64;100.00;100157.00;5150795;27;20617;-66
2022/11/28 04:33:09;;;;;;;0.70;0.70;;;;;;;7.64;100.00;100154.44;5144509;27;20198;-67
2022/11/28 04:35:41;;;;;;;0.50;0.50;;;;;;;7.63;100.00;100158.69;5133722;27;20194;-66
2022/11/28 04:38:10;;;;;;;0.60;0.60;;;;;;;7.64;100.00;100160.41;5133741;27;20194;-66
2022/11/28 04:40:44;;;;;;;0.60;0.60;;;;;;;7.61;100.00;100155.31;5147094;27;20553;-67
2022/11/28 04:43:18;;;;;;;0.40;0.40;;;;;;;7.64;100.00;100159.53;5142143;27;20205;-67
2022/11/28 04:45:50;;;;;;;0.60;0.60;;;;;;;7.62;100.00;100157.03;5141672;27;20197;-66
2022/11/28 04:48:17;;;;;;;0.80;0.80;;;;;;;7.58;100.00;100163.00;5131775;27;20220;-67
2022/11/28 04:50:50;;;;;;;1.23;1.23;;;;;;;7.62;100.00;100161.28;5147336;27;20229;-66
2022/11/28 04:53:24;;;;;;;0.60;0.60;;;;;;;7.62;100.00;100162.13;5151394;27;20193;-66
2022/11/28 04:55:55;;;;;;;0.57;0.57;;;;;;;7.63;100.00;100166.34;5154544;27;20193;-66
2022/11/28 04:58:28;;;;;;;1.57;1.03;;;;;;;7.60;100.00;100168.06;5134734;27;21323;-67
2022/11/28 05:00:55;;;;;;;0.60;0.60;;;;;;;7.48;100.00;100163.03;5133980;27;20641;-67
2022/11/28 05:03:26;;;;;;;0.53;0.53;;;;;;;7.55;100.00;100159.59;5138060;27;20251;-66
2022/11/28 05:05:54;;;;;;;0.60;0.60;;;;;;;7.52;100.00;100154.53;5141548;27;20197;-66
2022/11/28 05:08:21;;;;;;;0.90;0.90;;;;;;;7.58;100.00;100164.69;5134049;27;20641;-67
2022/11/28 05:10:48;;;;;;;0.63;0.63;;;;;;;7.59;100.00;100176.59;5140364;27;20605;-66
2022/11/28 05:13:15;;;;;;;0.70;0.70;;;;;;;7.62;100.00;100174.88;5151943;27;20254;-66
2022/11/28 05:15:42;;;;;;;1.60;1.60;;;;;;;7.60;100.00;100168.06;5142520;27;20696;-66
2022/11/28 05:18:09;;;;;;;0.50;0.50;;;;;;;7.62;100.00;100181.69;5133905;27;20267;-66
2022/11/28 05:20:36;;;;;;;0.60;0.60;;;;;;;7.55;100.00;100165.56;5147694;27;20198;-67
2022/11/28 05:23:05;;;;;;;0.70;0.70;;;;;;;7.62;100.00;100176.59;5132058;27;20213;-67
2022/11/28 05:25:32;;;;;;;0.63;0.63;;;;;;;7.62;100.00;100166.38;5141908;27;20274;-66
2022/11/28 05:27:59;;;;;;;1.00;1.00;;;;;;;7.60;100.00;100170.63;5131257;27;20202;-67
2022/11/28 05:30:26;;;;;;;0.57;0.57;;;;;;;7.63;100.00;100168.03;5133170;27;20278;-67
2022/11/28 05:32:52;;;;;;;0.70;0.70;;;;;;;7.58;100.00;100159.59;5132361;27;20594;-66
2022/11/28 05:35:19;;;;;;;0.67;0.67;;;;;;;7.56;100.00;100156.22;5143194;27;20670;-67
2022/11/28 05:37:46;;;;;;;0.70;0.70;;;;;;;7.56;100.00;100161.31;5141749;27;20623;-67
2022/11/28 05:40:14;;;;;;;0.90;0.90;;;;;;;7.56;100.00;100164.69;5137287;27;20202;-67
2022/11/28 05:42:41;;;;;;;0.60;0.60;;;;;;;7.58;100.00;100162.13;5143001;27;20254;-67
2022/11/28 05:45:09;;;;;;;0.70;0.70;;;;;;;7.59;100.00;100163.84;5129760;27;20198;-67
2022/11/28 05:47:36;;;;;;;0.70;0.70;;;;;;;7.56;100.00;100167.25;5136942;27;20738;-67
2022/11/28 05:50:02;;;;;;;0.70;0.70;;;;;;;7.59;100.00;100166.41;5134206;27;20276;-67
2022/11/28 05:52:31;;;;;;;0.87;0.87;;;;;;;7.55;100.00;100162.16;5138917;27;20722;-66
2022/11/28 05:54:58;;;;;;;0.80;0.80;;;;;;;7.32;100.00;100135.06;5142162;27;20205;-67
2022/11/28 05:57:28;;;;;;;0.60;0.60;;;;;;;7.53;100.00;100157.06;5146928;27;20198;-67
2022/11/28 05:59:56;;;;;;;0.73;0.73;;;;;;;7.54;100.00;100168.09;5132439;27;20222;-67
2022/11/28 06:02:23;;;;;;;0.90;0.90;;;;;;;7.44;100.00;100152.00;5133071;27;20589;-67
2022/11/28 06:04:49;;;;;;;0.60;0.60;;;;;;;7.53;100.00;100157.06;5139611;27;20713;-67
2022/11/28 06:07:17;;;;;;;0.57;0.57;;;;;;;7.46;100.00;100162.22;5142038;27;20221;-67
2022/11/28 06:09:44;;;;;;;1.40;1.40;;;;;;;7.49;100.00;100172.41;5141591;27;20206;-67
2022/11/28 06:12:11;;;;;;;0.60;0.60;;;;;;;7.47;100.00;100176.66;5136472;27;20199;-67
2022/11/28 06:14:39;;;;;;;0.80;0.80;;;;;;;7.48;100.00;100178.34;5137702;27;20194;-67
2022/11/28 06:17:06;;;;;;;0.53;0.53;;;;;;;7.47;100.00;100176.66;5141904;27;20197;-67
2022/11/28 06:19:33;;;;;;;0.60;0.60;;;;;;;7.43;100.00;100175.00;5137612;27;20684;-66
2022/11/28 06:21:59;;;;;;;0.60;0.60;;;;;;;7.49;100.00;100180.06;5124968;27;20198;-67
2022/11/28 06:24:26;;;;;;;0.70;0.70;;;;;;;7.47;100.00;100179.19;5129765;27;20205;-67
2022/11/28 06:26:53;;;;;;;0.63;0.63;;;;;;;7.45;100.00;100179.22;5131911;27;20210;-67
2022/11/28 06:29:20;;;;;;;0.50;0.50;;;;;;;7.43;100.00;100177.53;5130250;27;20685;-67
2022/11/28 06:31:48;;;;;;;0.50;0.50;;;;;;;7.43;100.00;100175.84;5130022;27;20213;-67
2022/11/28 06:34:15;;;;;;;0.60;0.60;;;;;;;7.44;100.00;100176.66;5140480;27;20738;-67
2022/11/28 06:36:45;;;;;;;1.00;1.00;;;;;;;7.46;100.00;100175.81;5139471;27;20202;-66
2022/11/28 06:39:14;;;;;;;0.60;0.60;;;;;;;7.36;100.00;100172.47;5136506;27;20238;-66
2022/11/28 06:41:41;;;;;;;0.50;0.50;;;;;;;7.34;100.00;100171.63;5136741;27;20198;-66
2022/11/28 06:44:08;;;;;;;0.73;0.73;;;;;;;7.34;100.00;100173.31;5120076;27;20252;-66
2022/11/28 06:46:35;;;;;;;0.60;0.60;;;;;;;7.18;100.00;100153.84;5124875;27;20225;-66
2022/11/28 06:49:03;;;;;;;0.60;0.60;;;;;;;7.26;100.00;100172.50;5122104;27;20210;-66
2022/11/28 06:51:30;;;;;;;0.60;0.60;;;;;;;7.20;100.00;100173.41;5121266;27;20202;-67
2022/11/28 06:53:57;;;;;;;0.77;0.77;;;;;;;7.17;100.00;100182.75;5122618;27;20273;-66
2022/11/28 06:56:24;;;;;;;0.60;0.60;;;;;;;7.13;100.00;100184.47;5119629;27;20206;-67
2022/11/28 06:58:55;;;;;;;0.80;0.80;;;;;;;7.10;100.00;100183.63;5119708;27;20231;-67
2022/11/28 07:01:23;;;;;;;0.60;0.60;;;;;;;7.00;100.00;100162.44;5121467;27;20205;-67
2022/11/28 07:03:50;;;;;;;0.53;0.53;;;;;;;7.03;100.00;100170.06;5120139;27;20275;-67
2022/11/28 07:06:19;;;;;;;0.70;0.70;;;;;;;7.07;100.00;100176.84;5122836;27;20194;-67
2022/11/28 07:08:46;;;;;;;0.53;0.53;;;;;;;7.09;100.00;100175.13;5122925;27;20282;-67
2022/11/28 07:11:15;;;;;;;0.63;0.63;;;;;;;7.07;100.00;100174.31;5120591;27;20226;-67
2022/11/28 07:13:44;;;;;;;0.90;0.90;;;;;;;7.06;100.00;100175.16;5128439;27;20664;-67
2022/11/28 07:16:15;;;;;;;0.50;0.50;;;;;;;6.96;100.00;100164.97;5137884;27;20216;-66
2022/11/28 07:18:42;;;;;;;0.63;0.63;;;;;;;6.78;100.00;100163.34;5142960;27;20185;-66
2022/11/28 07:21:09;;;;;;;0.60;0.60;;;;;;;6.76;100.00;100175.22;5145799;27;20193;-66
2022/11/28 07:23:37;;;;;;;0.60;0.60;;;;;;;6.77;100.00;100170.13;5139352;27;20197;-67
2022/11/28 07:26:05;;;;;;;0.60;0.60;;;;;;;6.70;100.00;100165.91;5131372;27;20202;-67
2022/11/28 07:28:35;;;;;;;0.60;0.60;;;;;;;6.66;100.00;100160.81;5134789;27;20210;-67
2022/11/28 07:31:05;;;;;;;0.60;0.60;;;;;;;6.63;100.00;100165.91;5135945;27;20206;-68
2022/11/28 07:33:33;;;;;;;0.60;0.60;;;;;;;6.60;100.00;100168.47;5142755;27;20197;-68
2022/11/28 07:36:01;;;;;;;0.67;0.67;;;;;;;6.54;100.00;100173.56;5146046;27;20198;-67
2022/11/28 07:38:28;;;;;;;0.60;0.60;;;;;;;6.47;100.00;100152.34;5140688;27;20254;-69
2022/11/28 07:41:02;;;;;;;0.60;0.60;;;;;;;6.52;100.00;100152.38;5141192;27;20193;-67
2022/11/28 07:43:29;;;;;;;0.70;0.70;;;;;;;6.49;100.00;100165.09;5142546;27;20209;-67
2022/11/28 07:45:56;;;;;;;0.70;0.70;;;;;;;6.37;100.00;100154.91;5138033;27;20205;-69
2022/11/28 07:48:23;;;;;;;0.80;0.80;;;;;;;6.38;100.00;100166.81;5139174;27;20250;-68
2022/11/28 07:50:49;;;;;;;0.77;0.77;;;;;;;6.36;100.00;100159.19;5150476;27;20768;-68
2022/11/28 07:53:16;;;;;;;0.70;0.70;;;;;;;6.26;100.00;100165.97;5138010;27;20202;-67
2022/11/28 07:55:43;;;;;;;0.67;0.67;;;;;;;6.17;100.00;100163.41;5139514;27;20699;-69
2022/11/28 07:58:11;;;;;;;0.50;0.50;;;;;;;6.12;100.00;100160.03;5143409;27;20213;-68
2022/11/28 08:00:38;;;;;;;0.60;0.60;;;;;;;6.11;100.00;100158.31;5142123;27;20280;-69
2022/11/28 08:03:05;;;;;;;0.60;0.60;;;;;;;6.12;100.00;100161.72;5132812;27;20257;-67
2022/11/28 08:05:31;;;;;;;1.40;1.40;;;;;;;6.04;100.00;100150.72;5129527;27;20653;-67
2022/11/28 08:07:58;;;;;;;0.50;0.50;;;;;;;6.06;100.00;100154.09;5126051;27;20223;-67
2022/11/28 08:10:25;;;;;;;0.83;0.83;;;;;;;6.05;100.00;100158.34;5131178;27;20217;-67
2022/11/28 08:12:52;;;;;;;0.50;0.50;;;;;;;6.03;100.00;100147.31;5131745;27;20201;-66
2022/11/28 08:15:20;;;;;;;0.80;0.80;;;;;;;6.09;100.00;100142.22;5129229;27;20561;-67
2022/11/28 08:17:47;;;;;;;0.80;0.80;;;;;;;6.14;100.00;100143.06;5128384;27;20252;-67
2022/11/28 08:20:14;;;;;;;0.60;0.60;;;;;;;6.21;100.00;100139.66;5141214;27;20688;-68
2022/11/28 08:22:40;;;;;;;0.60;0.60;;;;;;;6.24;100.00;100149.00;5133728;27;20202;-68
2022/11/28 08:25:08;;;;;;;0.70;0.70;;;;;;;6.26;100.00;100148.16;5133006;27;20285;-67
2022/11/28 08:27:35;;;;;;;0.87;0.87;;;;;;;6.34;100.00;100140.50;5136532;27;20205;-69
2022/11/28 08:30:02;;;;;;;0.60;0.60;;;;;;;6.34;100.00;100130.31;5131326;27;20271;-69
2022/11/28 08:32:30;;;;;;;0.60;0.60;;;;;;;6.44;100.00;100136.22;5142426;27;20201;-67
2022/11/28 08:34:57;;;;;;;0.60;0.60;;;;;;;6.46;100.00;100137.09;5144696;27;20218;-67
2022/11/28 08:37:24;;;;;;;0.60;0.60;;;;;;;6.45;100.00;100150.66;5137091;27;20269;-67
2022/11/28 08:39:50;;;;;;;0.70;0.70;;;;;;;6.45;100.00;100137.94;5144689;27;20645;-67
2022/11/28 08:42:17;;;;;;;0.67;0.67;;;;;;;6.42;100.00;100146.44;5134902;27;20862;-68
2022/11/28 08:44:44;;;;;;;0.80;0.80;;;;;;;6.45;100.00;100131.16;5128889;27;20688;-69
2022/11/28 08:47:11;;;;;;;2.40;1.10;;;;;;;6.46;100.00;100134.56;5131951;27;20240;-66
2022/11/28 08:49:39;;;;;;;0.57;0.57;;;;;;;6.42;100.00;100133.69;5136000;27;20214;-67
2022/11/28 08:52:06;;;;;;;0.70;0.70;;;;;;;6.48;100.00;100133.69;5138505;27;20224;-68
2022/11/28 08:54:32;;;;;;;0.50;0.50;;;;;;;6.48;100.00;100122.66;5146436;27;20198;-68
2022/11/28 08:57:00;;;;;;;0.50;0.50;;;;;;;6.54;100.00;100131.13;5147393;27;20194;-67
2022/11/28 08:59:27;;;;;;;0.80;0.80;;;;;;;6.55;100.00;100131.97;5139611;27;20206;-67
2022/11/28 09:01:54;;;;;;;0.90;0.90;;;;;;;6.56;100.00;100120.94;5132956;27;20610;-67
2022/11/28 09:04:22;;;;;;;0.60;0.60;;;;;;;6.51;100.00;100120.09;5131073;27;20221;-71
2022/11/28 09:06:51;;;;;;;1.43;1.43;;;;;;;6.49;100.00;100111.63;5127947;27;20225;-68
2022/11/28 09:09:19;;;;;;;0.70;0.70;;;;;;;6.46;100.00;100114.19;5132665;27;20217;-68
2022/11/28 09:11:46;;;;;;;0.60;0.60;;;;;;;6.43;100.00;100104.00;5138711;27;20206;-67
2022/11/28 09:14:13;;;;;;;0.63;0.63;;;;;;;6.37;100.00;100096.34;5135762;27;20685;-67
2022/11/28 09:16:41;;;;;;;0.50;0.50;;;;;;;6.45;100.00;100097.19;5144224;27;20713;-68
2022/11/28 09:19:09;;;;;;;0.50;0.50;;;;;;;6.39;100.00;100098.06;5131200;27;20202;-68
2022/11/28 09:21:36;;;;;;;0.63;0.63;;;;;;;6.33;100.00;100092.97;5132479;27;20205;-67
2022/11/28 09:24:06;;;;;;;2.00;1.77;;;;;;;6.29;100.00;100097.22;5135698;27;20246;-67
2022/11/28 09:26:33;;;;;;;0.70;0.70;;;;;;;6.33;100.00;100093.81;5136750;27;20201;-66
2022/11/28 09:29:00;;;;;;;0.53;0.53;;;;;;;6.39;100.00;100087.03;5144928;27;20738;-68
2022/11/28 09:31:27;;;;;;;0.50;0.50;;;;;;;6.38;100.00;100095.50;5135121;27;20686;-67
2022/11/28 09:33:54;;;;;;;1.03;1.03;;;;;;;6.37;100.00;100073.44;5138615;27;20206;-67
2022/11/28 09:36:22;;;;;;;0.73;0.73;;;;;;;6.52;100.00;100083.59;5133224;27;20577;-69
2022/11/28 09:38:50;;;;;;;0.70;0.70;;;;;;;6.58;100.00;100076.78;5126943;27;20562;-69
2022/11/28 09:41:51;;;;;;;0.97;0.97;;;;;;;6.58;100.00;100064.03;5126447;27;20240;-67
2022/11/28 09:44:23;;;;;;;0.60;0.60;;;;;;;6.51;100.00;100067.47;5131874;27;20202;-67
2022/11/28 09:46:54;;;;;;;0.60;0.60;;;;;;;6.50;100.00;100068.28;5133665;27;20198;-68
2022/11/28 09:49:31;;;;;;;0.50;0.50;;;;;;;6.42;100.00;100057.31;5133065;27;20218;-67
2022/11/28 09:52:02;;;;;;;0.70;0.70;;;;;;;6.49;100.00;100063.22;5146190;27;20204;-66
2022/11/28 09:54:43;;;;;;;0.60;0.60;;;;;;;6.54;100.00;100048.75;5153647;27;20847;-67
2022/11/28 09:57:21;;;;;;;1.20;1.20;;;;;;;6.63;100.00;100048.72;5146952;27;20454;-67
2022/11/28 09:59:48;;;;;;;1.13;1.13;;;;;;;6.79;100.00;100047.81;5145953;27;20212;-67
2022/11/28 10:02:24;;;;;;;0.90;0.90;;;;;;;6.85;100.00;100048.63;5144443;27;20656;-66
2022/11/28 10:05:02;;;;;;;0.57;0.57;;;;;;;6.85;100.00;100040.13;5135786;27;20650;-66
2022/11/28 10:07:41;;;;;;;0.50;0.50;;;;;;;6.84;100.00;100035.91;5140117;27;20238;-66
2022/11/28 10:10:22;;;;;;;0.50;0.50;;;;;;;6.85;100.00;100045.22;5144130;27;20209;-66
2022/11/28 10:13:00;;;;;;;0.50;0.50;;;;;;;6.86;100.00;100044.38;5136017;27;20193;-66
2022/11/28 10:15:41;;;;;;;0.60;0.60;;;;;;;6.91;100.00;100037.56;5134070;27;20198;-66
2022/11/28 10:18:18;;;;;;;0.70;0.70;;;;;;;6.97;100.00;100040.09;5137052;27;20222;-67
2022/11/28 10:20:48;;;;;;;0.70;0.70;;;;;;;6.93;100.00;100038.41;5145497;27;20197;-67
2022/11/28 10:23:22;;;;;;;0.50;0.50;;;;;;;6.91;100.00;100029.94;5131200;27;20914;-66
2022/11/28 10:25:53;;;;;;;0.60;0.60;;;;;;;6.96;100.00;100030.75;5138081;27;20194;-66
2022/11/28 10:28:26;;;;;;;0.63;0.63;;;;;;;7.05;100.00;100023.03;5142417;27;20189;-67
2022/11/28 10:30:59;;;;;;;0.60;0.60;;;;;;;7.10;100.00;100018.78;5137849;27;20226;-66
2022/11/28 10:33:30;;;;;;;0.60;0.60;;;;;;;7.10;100.00;100018.78;5129969;27;20204;-67
2022/11/28 10:35:59;;;;;;;0.43;0.43;;;;;;;7.14;100.00;100020.41;5128651;27;20551;-66
2022/11/28 10:38:28;;;;;;;0.77;0.77;;;;;;;7.22;100.00;100013.56;5124589;27;20209;-66
2022/11/28 10:41:00;;;;;;;0.70;0.70;;;;;;;7.27;100.00;100024.59;5129321;27;20682;-66
2022/11/28 10:43:38;;;;;;;0.70;0.70;;;;;;;7.26;100.00;100009.31;5139982;27;20198;-68
2022/11/28 10:46:26;;;;;;;0.80;0.80;;;;;;;7.16;100.00;100012.78;5134500;27;20185;-67
2022/11/28 10:49:03;;;;;;;0.60;0.60;;;;;;;7.17;100.00;100007.66;5130610;27;20665;-68
2022/11/28 10:51:36;;;;;;;0.60;0.60;;;;;;;7.26;100.00;100005.06;5139846;27;20606;-68
2022/11/28 10:54:16;;;;;;;0.60;0.60;;;;;;;7.29;100.00;100005.03;5133246;27;20201;-68
2022/11/28 10:56:52;;;;;;;0.90;0.90;;;;;;;6.96;100.00;99944.06;5130054;27;20186;-68
2022/11/28 10:59:32;;;;;;;0.53;0.53;;;;;;;7.35;100.00;99997.34;5131931;27;20194;-68
2022/11/28 11:02:00;;;;;;;0.70;0.70;;;;;;;7.37;100.00;99998.16;5130355;27;20202;-68
2022/11/28 11:04:27;;;;;;;0.60;0.60;;;;;;;7.39;100.00;99995.59;5130948;27;20226;-67
2022/11/28 11:07:09;;;;;;;0.77;0.77;;;;;;;7.33;100.00;99993.94;5126561;27;20301;-67
2022/11/28 11:09:36;;;;;;;0.97;0.97;;;;;;;7.38;100.00;99988.81;5127240;27;20255;-67
2022/11/28 11:12:05;;;;;;;0.67;0.67;;;;;;;7.45;100.00;99981.94;5129513;27;20213;-68
2022/11/28 11:14:38;;;;;;;0.60;0.60;;;;;;;7.42;100.00;99967.53;5129264;27;20224;-68
2022/11/28 11:17:06;;;;;;;0.50;0.50;;;;;;;7.49;100.00;99987.03;5130159;27;20622;-67
2022/11/28 11:19:34;;;;;;;0.50;0.50;;;;;;;7.42;100.00;99974.31;5130990;27;20202;-67
2022/11/28 11:22:05;;;;;;;0.67;0.67;;;;;;;7.50;100.00;99973.38;5136535;27;20201;-66
2022/11/28 11:24:32;;;;;;;0.90;0.90;;;;;;;7.42;100.00;99951.38;5135333;27;20194;-66
2022/11/28 11:27:05;;;;;;;0.60;0.60;;;;;;;7.56;100.00;99977.63;5149906;27;20193;-66
2022/11/28 11:29:35;;;;;;;0.90;0.90;;;;;;;7.53;100.00;99972.53;5136861;27;20196;-67
2022/11/28 11:32:05;;;;;;;0.77;0.77;;;;;;;7.49;100.00;99968.31;5131793;27;20223;-67
2022/11/28 11:34:38;;;;;;;0.50;0.50;;;;;;;7.51;100.00;99966.59;5141924;27;20246;-65
2022/11/28 11:37:30;;;;;;;0.80;0.80;;;;;;;7.60;100.00;99961.41;5132612;27;20206;-68
2022/11/28 11:39:57;;;;;;;0.60;0.60;;;;;;;7.67;100.00;99956.22;5136656;27;20197;-68